Time;durP1;ratioP1;P1;durP2;ratioP2;P2;SDS_P1;SDS_P2;PMS_P1;PMS_P2;Temp;Humidity;BMP_temperature;BMP_pressure;BME280_temperature;BME280_humidity;BME280_pressure;Samples;Min_cycle;Max_cycle;Signal;HPM_P1;HPM_P2
2023/06/29 00:02:44;;;;;;;0.98;0.80;;;22.00;58.90;;;;;;6269748;28;20114;-74
2023/06/29 00:05:45;;;;;;;1.05;0.77;;;22.00;58.90;;;;;;6269404;28;20021;-74
2023/06/29 00:08:48;;;;;;;1.27;0.95;;;22.00;59.00;;;;;;6269317;28;20632;-74
2023/06/29 00:11:48;;;;;;;0.82;0.70;;;22.00;58.90;;;;;;6269679;28;20055;-74
2023/06/29 00:14:49;;;;;;;0.80;0.73;;;22.00;58.90;;;;;;6269509;28;20049;-74
2023/06/29 00:17:49;;;;;;;0.63;0.63;;;22.00;58.90;;;;;;6269123;28;20037;-74
2023/06/29 00:20:51;;;;;;;1.42;0.90;;;22.00;58.90;;;;;;6269652;28;20025;-74
2023/06/29 00:23:53;;;;;;;1.00;0.77;;;22.00;58.90;;;;;;6269161;28;20027;-73
2023/06/29 00:26:54;;;;;;;1.27;0.82;;;22.00;58.90;;;;;;6269622;28;20025;-74
2023/06/29 00:29:54;;;;;;;1.00;0.80;;;22.00;59.00;;;;;;6268974;28;20514;-74
2023/06/29 00:32:55;;;;;;;0.70;0.68;;;22.00;59.00;;;;;;6269217;28;20024;-74
2023/06/29 00:35:56;;;;;;;2.05;0.65;;;22.00;58.90;;;;;;6269104;28;20017;-74
2023/06/29 00:38:56;;;;;;;1.17;0.90;;;22.00;59.00;;;;;;6269199;28;20098;-73
2023/06/29 00:41:57;;;;;;;0.70;0.70;;;22.00;59.00;;;;;;6269327;28;20055;-74
2023/06/29 00:44:57;;;;;;;1.45;1.00;;;22.00;59.00;;;;;;6268993;28;20073;-73
2023/06/29 00:47:58;;;;;;;1.05;0.77;;;22.00;59.00;;;;;;6268892;28;20043;-74
2023/06/29 00:50:59;;;;;;;0.98;0.80;;;22.00;59.00;;;;;;6267217;28;20044;-73
2023/06/29 00:54:00;;;;;;;0.95;0.85;;;22.00;59.00;;;;;;6267102;28;20382;-73
2023/06/29 00:57:01;;;;;;;0.80;0.70;;;22.00;59.00;;;;;;6267318;28;20025;-74
2023/06/29 01:00:05;;;;;;;1.00;0.73;;;22.00;59.00;;;;;;6267254;28;20032;-74
2023/06/29 01:03:09;;;;;;;0.70;0.70;;;22.00;59.00;;;;;;6266773;28;20017;-73
2023/06/29 01:06:16;;;;;;;0.70;0.68;;;22.00;59.00;;;;;;6266960;28;20032;-73
2023/06/29 01:09:17;;;;;;;1.30;0.70;;;22.00;58.90;;;;;;6266987;28;20023;-73
2023/06/29 01:12:18;;;;;;;1.20;1.02;;;22.00;59.00;;;;;;6267238;28;20480;-73
2023/06/29 01:15:21;;;;;;;1.77;0.70;;;22.00;59.00;;;;;;6266711;28;20051;-74
2023/06/29 01:18:23;;;;;;;1.02;0.80;;;22.00;59.00;;;;;;6267020;28;20064;-74
2023/06/29 01:21:25;;;;;;;0.73;0.55;;;22.00;59.00;;;;;;6267281;28;20029;-73
2023/06/29 01:24:29;;;;;;;2.17;0.80;;;22.00;59.00;;;;;;6248997;28;20044;-73
2023/06/29 01:27:30;;;;;;;0.88;0.73;;;22.00;59.00;;;;;;6267055;28;20029;-73
2023/06/29 01:30:31;;;;;;;0.60;0.60;;;22.00;59.00;;;;;;6266515;28;20081;-74
2023/06/29 01:33:32;;;;;;;1.17;0.90;;;22.00;59.00;;;;;;6266741;28;20030;-74
2023/06/29 01:36:42;;;;;;;1.40;0.95;;;22.00;59.00;;;;;;6266495;28;20021;-74
2023/06/29 01:39:51;;;;;;;1.23;0.70;;;22.00;59.00;;;;;;6266356;28;20284;-74
2023/06/29 01:42:54;;;;;;;0.93;0.77;;;22.00;59.00;;;;;;6266997;28;20021;-74
2023/06/29 01:45:56;;;;;;;0.70;0.70;;;22.00;59.00;;;;;;6267216;28;20025;-74
2023/06/29 01:48:56;;;;;;;1.52;0.88;;;22.00;59.00;;;;;;6266544;28;20024;-74
2023/06/29 01:51:57;;;;;;;0.73;0.60;;;22.00;59.00;;;;;;6267628;28;20071;-74
2023/06/29 01:54:58;;;;;;;1.42;0.70;;;22.00;59.00;;;;;;6266488;28;20534;-74
2023/06/29 01:57:59;;;;;;;1.65;0.80;;;22.00;59.00;;;;;;6266645;28;20029;-74
2023/06/29 02:00:59;;;;;;;0.88;0.85;;;22.00;59.00;;;;;;6266379;28;20353;-74
2023/06/29 02:04:00;;;;;;;0.70;0.63;;;22.00;59.00;;;;;;6269743;28;20028;-74
2023/06/29 02:07:00;;;;;;;0.90;0.60;;;22.00;59.00;;;;;;6270955;28;20024;-74
2023/06/29 02:10:01;;;;;;;1.08;0.60;;;22.00;59.00;;;;;;6270887;28;20065;-73
2023/06/29 02:13:02;;;;;;;1.02;0.80;;;22.00;59.10;;;;;;6270716;28;20021;-73
2023/06/29 02:16:03;;;;;;;1.00;0.80;;;22.00;59.00;;;;;;6271024;28;20032;-74
2023/06/29 02:19:04;;;;;;;0.93;0.80;;;22.00;59.00;;;;;;6252177;28;20384;-74
2023/06/29 02:22:04;;;;;;;0.88;0.80;;;22.00;59.00;;;;;;6270746;28;20052;-74
2023/06/29 02:25:05;;;;;;;1.02;0.90;;;22.00;59.10;;;;;;6270388;28;20021;-73
2023/06/29 02:28:06;;;;;;;0.90;0.73;;;22.00;59.00;;;;;;6270512;28;20357;-74
2023/06/29 02:31:07;;;;;;;0.85;0.77;;;22.00;59.10;;;;;;6269838;28;20110;-75
2023/06/29 02:34:08;;;;;;;0.77;0.60;;;22.00;59.10;;;;;;6270197;28;20025;-74
2023/06/29 02:37:08;;;;;;;1.00;0.80;;;22.00;59.10;;;;;;6270465;28;20078;-74
2023/06/29 02:40:09;;;;;;;1.48;0.90;;;22.00;59.10;;;;;;6269900;28;20021;-74
2023/06/29 02:43:10;;;;;;;0.90;0.80;;;22.00;59.10;;;;;;6270297;28;20021;-74
2023/06/29 02:46:11;;;;;;;0.98;0.70;;;22.00;59.00;;;;;;6269717;28;20478;-74
2023/06/29 02:49:12;;;;;;;1.25;0.90;;;22.00;59.10;;;;;;6269583;28;20048;-74
2023/06/29 02:52:12;;;;;;;1.30;0.90;;;22.00;59.10;;;;;;6269428;28;20096;-74
2023/06/29 02:55:13;;;;;;;0.70;0.70;;;22.00;59.10;;;;;;6269713;28;20162;-74
2023/06/29 02:58:14;;;;;;;0.93;0.82;;;22.00;59.10;;;;;;6269774;28;20063;-74
2023/06/29 03:01:14;;;;;;;0.82;0.80;;;22.00;59.10;;;;;;6269793;28;20499;-74
2023/06/29 03:04:15;;;;;;;1.05;0.77;;;22.00;59.10;;;;;;6269418;28;20021;-74
2023/06/29 03:07:15;;;;;;;0.90;0.70;;;22.00;59.10;;;;;;6268977;28;20032;-74
2023/06/29 03:10:16;;;;;;;1.00;0.90;;;22.00;59.10;;;;;;6268932;28;20342;-74
2023/06/29 03:13:16;;;;;;;1.40;0.90;;;22.00;59.10;;;;;;6269818;28;20067;-74
2023/06/29 03:16:17;;;;;;;0.95;0.73;;;22.00;59.10;;;;;;6269390;28;20467;-74
2023/06/29 03:19:18;;;;;;;1.25;0.88;;;22.00;59.10;;;;;;6268872;28;20064;-74
2023/06/29 03:22:18;;;;;;;0.80;0.70;;;22.00;59.20;;;;;;6248024;28;20037;-74
2023/06/29 03:25:19;;;;;;;0.65;0.65;;;22.00;59.20;;;;;;6250988;28;20067;-73
2023/06/29 03:28:19;;;;;;;0.95;0.90;;;22.00;59.10;;;;;;6269172;28;20047;-74
2023/06/29 03:31:20;;;;;;;1.10;0.90;;;22.00;59.10;;;;;;6268704;28;20088;-73
2023/06/29 03:34:21;;;;;;;1.08;0.98;;;22.00;59.10;;;;;;6269009;28;20471;-73
2023/06/29 03:37:21;;;;;;;0.90;0.70;;;22.00;59.20;;;;;;6268800;28;20032;-74
2023/06/29 03:40:22;;;;;;;0.90;0.82;;;22.00;59.20;;;;;;6268732;28;20028;-73
2023/06/29 03:43:22;;;;;;;0.65;0.60;;;22.00;59.10;;;;;;6268637;28;20456;-74
2023/06/29 03:46:24;;;;;;;0.90;0.80;;;22.00;59.10;;;;;;6268312;28;20029;-73
2023/06/29 03:49:24;;;;;;;1.83;1.05;;;22.00;59.20;;;;;;6268668;28;20092;-74
2023/06/29 03:52:25;;;;;;;0.70;0.70;;;22.00;59.20;;;;;;6268587;28;20021;-74
2023/06/29 03:55:26;;;;;;;0.85;0.80;;;22.00;59.20;;;;;;6269055;28;20021;-74
2023/06/29 03:58:26;;;;;;;1.15;1.02;;;22.00;59.20;;;;;;6250670;28;20090;-74
2023/06/29 04:01:27;;;;;;;0.70;0.60;;;22.00;59.10;;;;;;6268256;28;20013;-74
2023/06/29 04:04:27;;;;;;;0.75;0.60;;;22.00;59.20;;;;;;6268388;28;20468;-74
2023/06/29 04:07:28;;;;;;;0.80;0.70;;;22.00;59.20;;;;;;6268495;28;20147;-74
2023/06/29 04:10:28;;;;;;;1.23;0.77;;;22.00;59.20;;;;;;6268319;28;20029;-73
2023/06/29 04:13:29;;;;;;;1.13;0.77;;;22.00;59.20;;;;;;6268082;28;20061;-73
2023/06/29 04:16:30;;;;;;;1.02;0.80;;;22.00;59.10;;;;;;6250214;28;20483;-74
2023/06/29 04:19:30;;;;;;;1.10;0.90;;;22.00;59.20;;;;;;6267413;28;20025;-74
2023/06/29 04:22:31;;;;;;;1.40;0.80;;;22.00;59.20;;;;;;6267825;28;20024;-74
2023/06/29 04:25:33;;;;;;;1.63;0.98;;;22.00;59.20;;;;;;6267703;28;20490;-74
2023/06/29 04:28:34;;;;;;;1.50;0.98;;;22.00;59.20;;;;;;6267657;28;20028;-74
2023/06/29 04:31:35;;;;;;;1.27;0.88;;;22.00;59.20;;;;;;6252325;28;20104;-74
2023/06/29 04:34:35;;;;;;;0.85;0.70;;;22.00;59.20;;;;;;6262158;28;20021;-73
2023/06/29 04:37:40;;;;;;;1.23;0.70;;;22.00;59.20;;;;;;6265810;28;20418;-74
2023/06/29 04:40:42;;;;;;;0.75;0.75;;;22.00;59.20;;;;;;6256004;28;20099;-74
2023/06/29 04:43:47;;;;;;;1.38;1.00;;;22.00;59.10;;;;;;6267280;28;20037;-74
2023/06/29 04:46:48;;;;;;;1.02;0.60;;;22.00;59.10;;;;;;6266459;28;20025;-73
2023/06/29 04:49:52;;;;;;;0.93;0.70;;;22.00;59.20;;;;;;6249587;28;20029;-74
2023/06/29 04:52:54;;;;;;;1.33;0.88;;;22.00;59.20;;;;;;6261754;28;20033;-73
2023/06/29 04:55:55;;;;;;;0.95;0.82;;;22.00;59.20;;;;;;6238367;28;20140;-73
2023/06/29 04:58:56;;;;;;;0.93;0.90;;;22.00;59.20;;;;;;6265714;28;20387;-74
2023/06/29 05:01:56;;;;;;;1.10;0.90;;;22.00;59.10;;;;;;6257358;28;20021;-73
2023/06/29 05:04:57;;;;;;;0.98;0.80;;;22.00;59.10;;;;;;6254687;28;20029;-73
2023/06/29 05:07:57;;;;;;;1.42;0.98;;;22.00;59.10;;;;;;6259418;28;20438;-73
2023/06/29 05:10:58;;;;;;;1.17;0.80;;;22.00;59.10;;;;;;6246219;28;20054;-73
2023/06/29 05:13:58;;;;;;;1.00;0.90;;;22.00;59.10;;;;;;6257517;28;20059;-74
2023/06/29 05:16:59;;;;;;;1.00;0.80;;;22.00;59.10;;;;;;6266572;28;20476;-73
2023/06/29 05:20:00;;;;;;;1.23;1.00;;;22.00;59.10;;;;;;6248424;28;20047;-74
2023/06/29 05:23:00;;;;;;;2.53;1.02;;;22.00;59.20;;;;;;6266494;28;20025;-73
2023/06/29 05:26:01;;;;;;;2.22;1.00;;;22.00;59.10;;;;;;6265503;28;20230;-73
2023/06/29 05:29:02;;;;;;;2.33;1.10;;;22.00;59.20;;;;;;6262873;28;20017;-74
2023/06/29 05:32:03;;;;;;;3.35;1.00;;;22.00;59.10;;;;;;6265351;28;20500;-73
2023/06/29 05:35:04;;;;;;;1.90;1.02;;;22.00;59.20;;;;;;6264586;28;20147;-73
2023/06/29 05:38:05;;;;;;;1.65;1.10;;;22.00;59.10;;;;;;6269368;28;20144;-73
2023/06/29 05:41:05;;;;;;;1.25;1.00;;;22.00;59.20;;;;;;6230813;28;20041;-73
2023/06/29 05:44:06;;;;;;;1.60;0.85;;;22.00;59.10;;;;;;6269212;28;20049;-73
2023/06/29 05:47:07;;;;;;;1.15;0.93;;;22.00;59.40;;;;;;6257802;28;20021;-73
2023/06/29 05:50:07;;;;;;;1.83;1.25;;;22.00;59.20;;;;;;6269145;28;20063;-73
2023/06/29 05:53:08;;;;;;;1.58;0.93;;;22.10;59.00;;;;;;6254254;28;20021;-73
2023/06/29 05:56:09;;;;;;;1.10;0.80;;;22.10;58.80;;;;;;6268798;28;20033;-73
2023/06/29 05:59:09;;;;;;;1.02;0.90;;;22.20;58.70;;;;;;6267450;28;20051;-72
2023/06/29 06:02:10;;;;;;;1.10;0.80;;;22.30;58.50;;;;;;6262442;28;20063;-73
2023/06/29 06:05:10;;;;;;;4.00;1.05;;;22.40;58.60;;;;;;6269640;28;20029;-74
2023/06/29 06:08:11;;;;;;;3.63;1.38;;;22.30;58.70;;;;;;6271343;28;20017;-73
2023/06/29 06:11:12;;;;;;;2.25;1.15;;;22.30;58.70;;;;;;6271166;28;20108;-73
2023/06/29 06:14:12;;;;;;;1.58;1.00;;;22.20;58.70;;;;;;6259463;28;20031;-74
2023/06/29 06:17:13;;;;;;;1.75;1.08;;;22.20;58.80;;;;;;6257889;28;20032;-74
2023/06/29 06:20:14;;;;;;;1.38;1.00;;;22.20;58.80;;;;;;6270301;28;20025;-73
2023/06/29 06:23:14;;;;;;;1.75;1.02;;;22.20;58.80;;;;;;6270669;28;20140;-74
2023/06/29 06:26:15;;;;;;;3.22;1.10;;;22.20;58.80;;;;;;6269875;28;20024;-74
2023/06/29 06:29:15;;;;;;;2.78;1.10;;;22.20;58.80;;;;;;6252924;28;20116;-74
2023/06/29 06:32:16;;;;;;;3.28;0.90;;;22.20;58.80;;;;;;6270468;28;20025;-74
2023/06/29 06:35:17;;;;;;;1.75;0.95;;;22.20;58.80;;;;;;6270025;28;20383;-73
2023/06/29 06:38:17;;;;;;;1.05;0.80;;;22.20;58.80;;;;;;6270650;28;20281;-74
2023/06/29 06:41:18;;;;;;;0.95;0.85;;;22.20;58.70;;;;;;6270123;28;20032;-73
2023/06/29 06:44:19;;;;;;;1.67;1.10;;;22.20;58.80;;;;;;6270155;28;20021;-74
2023/06/29 06:47:20;;;;;;;1.77;0.98;;;22.20;58.70;;;;;;6269874;28;20253;-74
2023/06/29 06:50:21;;;;;;;1.08;0.90;;;22.30;58.80;;;;;;6270919;28;20021;-74
2023/06/29 06:53:21;;;;;;;1.05;0.80;;;22.30;58.80;;;;;;6271785;28;20036;-73
2023/06/29 06:56:25;;;;;;;1.27;0.98;;;22.30;58.80;;;;;;6270261;28;20033;-74
2023/06/29 06:59:26;;;;;;;1.17;0.77;;;22.30;58.90;;;;;;6271840;28;20033;-74
2023/06/29 07:02:26;;;;;;;1.13;1.02;;;22.30;58.80;;;;;;6270483;28;20029;-74
2023/06/29 07:05:27;;;;;;;1.70;0.80;;;22.30;58.90;;;;;;6252648;28;20032;-73
2023/06/29 07:08:27;;;;;;;2.00;1.00;;;22.20;58.70;;;;;;6260386;28;20021;-73
2023/06/29 07:11:28;;;;;;;1.13;0.82;;;22.30;58.80;;;;;;6270643;28;20100;-74
2023/06/29 07:14:29;;;;;;;1.02;0.82;;;22.30;58.80;;;;;;6270329;28;20519;-74
2023/06/29 07:17:30;;;;;;;1.35;1.00;;;22.30;58.90;;;;;;6270024;28;20044;-73
2023/06/29 07:20:31;;;;;;;3.15;0.85;;;22.30;58.90;;;;;;6270416;28;20025;-73
2023/06/29 07:23:31;;;;;;;3.72;0.88;;;22.30;59.00;;;;;;6270438;28;20047;-74
2023/06/29 07:26:32;;;;;;;1.25;1.00;;;22.30;58.90;;;;;;6269559;28;20025;-73
2023/06/29 07:29:33;;;;;;;1.52;0.80;;;22.30;59.50;;;;;;6269547;28;20060;-73
2023/06/29 07:32:34;;;;;;;2.03;0.90;;;22.30;58.80;;;;;;6269808;28;20060;-73
2023/06/29 07:35:35;;;;;;;1.20;0.90;;;22.30;58.90;;;;;;6269905;28;20028;-74
2023/06/29 07:38:35;;;;;;;1.80;0.98;;;22.30;59.00;;;;;;6264672;28;20026;-74
2023/06/29 07:41:36;;;;;;;1.98;0.90;;;22.30;59.10;;;;;;6262881;28;20029;-74
2023/06/29 07:44:37;;;;;;;2.08;0.88;;;22.20;59.00;;;;;;6270375;28;20035;-74
2023/06/29 07:47:37;;;;;;;1.40;0.95;;;22.20;59.10;;;;;;6270130;28;20048;-74
2023/06/29 07:50:38;;;;;;;0.90;0.80;;;22.20;59.10;;;;;;6252503;28;20108;-73
2023/06/29 07:53:38;;;;;;;3.10;1.00;;;22.20;59.20;;;;;;6269856;28;20021;-74
2023/06/29 07:56:39;;;;;;;0.85;0.80;;;22.20;59.20;;;;;;6269211;28;20048;-74
2023/06/29 07:59:40;;;;;;;1.05;0.80;;;22.20;59.20;;;;;;6269148;28;20043;-74
2023/06/29 08:02:41;;;;;;;1.35;0.93;;;22.20;59.20;;;;;;6258871;28;20037;-73
2023/06/29 08:05:42;;;;;;;1.85;1.00;;;22.10;59.20;;;;;;6250659;28;20025;-73
2023/06/29 08:08:42;;;;;;;0.88;0.75;;;22.10;59.20;;;;;;6269571;28;20029;-74
2023/06/29 08:11:43;;;;;;;1.13;0.82;;;22.10;59.20;;;;;;6269146;28;20109;-73
2023/06/29 08:14:43;;;;;;;1.10;0.90;;;22.10;59.20;;;;;;6263130;28;20053;-74
2023/06/29 08:17:44;;;;;;;0.85;0.77;;;22.10;59.20;;;;;;6267128;28;20320;-74
2023/06/29 08:20:46;;;;;;;0.90;0.70;;;22.10;59.20;;;;;;6269692;28;20031;-74
2023/06/29 08:23:49;;;;;;;1.10;0.95;;;22.10;59.20;;;;;;6268628;28;20037;-74
2023/06/29 08:26:49;;;;;;;1.08;0.80;;;22.10;59.20;;;;;;6269090;28;20040;-73
2023/06/29 08:29:52;;;;;;;1.13;0.80;;;22.10;59.20;;;;;;6269223;28;20527;-74
2023/06/29 08:32:53;;;;;;;0.60;0.60;;;22.10;59.20;;;;;;6268956;28;20025;-74
2023/06/29 08:35:53;;;;;;;1.02;0.80;;;22.10;59.20;;;;;;6268729;28;20037;-74
2023/06/29 08:38:54;;;;;;;1.08;0.80;;;22.10;59.20;;;;;;6268746;28;20040;-74
2023/06/29 08:41:55;;;;;;;0.95;0.85;;;22.10;59.30;;;;;;6269071;28;20071;-74
2023/06/29 08:44:56;;;;;;;2.08;0.85;;;22.10;59.20;;;;;;6248412;28;20030;-74
2023/06/29 08:47:58;;;;;;;0.65;0.60;;;22.10;59.30;;;;;;6264076;28;20025;-73
2023/06/29 08:51:09;;;;;;;1.58;0.98;;;22.10;59.30;;;;;;6268596;28;20027;-74
2023/06/29 08:54:11;;;;;;;1.95;0.93;;;22.10;59.30;;;;;;6264712;28;20476;-73
2023/06/29 08:57:12;;;;;;;3.13;1.10;;;22.10;59.30;;;;;;6257297;28;20028;-74
2023/06/29 09:00:14;;;;;;;1.90;1.08;;;22.10;59.30;;;;;;6268345;28;20064;-74
2023/06/29 09:03:17;;;;;;;2.22;1.10;;;22.00;59.20;;;;;;6262667;28;20014;-74
2023/06/29 09:06:18;;;;;;;2.60;1.38;;;22.10;59.30;;;;;;6247519;28;20067;-74
2023/06/29 09:09:22;;;;;;;3.30;1.80;;;22.10;59.30;;;;;;6267920;28;20028;-74
2023/06/29 09:12:23;;;;;;;3.07;1.40;;;22.10;59.40;;;;;;6272912;28;20394;-73
2023/06/29 09:15:27;;;;;;;2.65;1.30;;;22.10;59.40;;;;;;6273169;28;20021;-73
2023/06/29 09:18:28;;;;;;;3.55;1.50;;;22.10;59.40;;;;;;6272781;28;20060;-73
2023/06/29 09:21:29;;;;;;;1.95;1.10;;;22.10;59.40;;;;;;6273330;28;20031;-74
2023/06/29 09:24:32;;;;;;;3.42;1.45;;;22.10;59.40;;;;;;6272477;28;20037;-74
2023/06/29 09:27:34;;;;;;;3.92;1.75;;;22.10;59.40;;;;;;6272776;28;20074;-74
2023/06/29 09:30:40;;;;;;;3.67;1.80;;;22.10;59.40;;;;;;6272554;28;20041;-74
2023/06/29 09:33:40;;;;;;;3.22;1.45;;;22.00;59.30;;;;;;6262271;28;20048;-74
2023/06/29 09:36:41;;;;;;;4.45;1.77;;;22.00;59.30;;;;;;6272885;28;20029;-73
2023/06/29 09:39:56;;;;;;;4.00;2.10;;;22.00;59.30;;;;;;6272486;28;20040;-74
2023/06/29 09:43:01;;;;;;;;;;;22.00;59.30;;;;;;6269956;28;20053;-73
2023/06/29 09:46:08;;;;;;;3.97;2.00;;;22.00;59.30;;;;;;6269721;28;19982;-73
2023/06/29 09:49:10;;;;;;;8.38;2.60;;;22.00;59.30;;;;;;6272167;28;20033;-74
2023/06/29 09:52:10;;;;;;;6.30;2.38;;;22.10;59.40;;;;;;6246067;28;20025;-74
2023/06/29 09:55:11;;;;;;;5.80;2.55;;;22.10;59.40;;;;;;6266874;28;20473;-74
2023/06/29 09:58:14;;;;;;;5.93;2.60;;;22.10;59.40;;;;;;6272395;28;20037;-73
2023/06/29 10:01:17;;;;;;;6.30;2.88;;;22.00;59.30;;;;;;6272274;28;20112;-73
2023/06/29 10:04:18;;;;;;;8.05;3.25;;;22.00;59.40;;;;;;6273061;28;20067;-74
2023/06/29 10:07:19;;;;;;;7.93;3.20;;;22.00;59.30;;;;;;6273126;28;20021;-74
2023/06/29 10:10:20;;;;;;;7.85;3.30;;;22.00;59.30;;;;;;6271476;28;20029;-74
2023/06/29 10:13:22;;;;;;;9.25;3.53;;;22.00;59.30;;;;;;6272090;28;20479;-74
2023/06/29 10:16:23;;;;;;;5.55;2.88;;;22.00;59.40;;;;;;6272068;28;20057;-73
2023/06/29 10:19:24;;;;;;;8.85;2.72;;;22.00;59.40;;;;;;6271798;28;20033;-73
2023/06/29 10:22:26;;;;;;;10.02;3.47;;;22.00;59.30;;;;;;6271089;28;20075;-73
2023/06/29 10:25:28;;;;;;;8.07;3.42;;;22.00;59.30;;;;;;6260424;28;20049;-73
2023/06/29 10:28:29;;;;;;;8.50;3.42;;;22.00;59.40;;;;;;6261372;28;20083;-74
2023/06/29 10:31:33;;;;;;;8.50;3.22;;;22.00;59.30;;;;;;6253228;28;20466;-74
2023/06/29 10:34:37;;;;;;;6.73;3.03;;;22.00;59.40;;;;;;6271520;28;20083;-74
2023/06/29 10:37:40;;;;;;;6.73;2.80;;;22.00;59.40;;;;;;6267111;28;20295;-74
2023/06/29 10:40:47;;;;;;;6.93;2.90;;;22.00;59.40;;;;;;6271218;28;20482;-74
2023/06/29 10:43:59;;;;;;;8.95;3.15;;;22.00;59.40;;;;;;6259701;28;20018;-74
2023/06/29 10:46:59;;;;;;;7.60;2.97;;;22.00;59.40;;;;;;6268237;28;20076;-74
2023/06/29 10:50:13;;;;;;;5.95;2.72;;;22.00;59.40;;;;;;6267953;28;20032;-74
2023/06/29 10:53:16;;;;;;;6.20;2.70;;;22.00;59.40;;;;;;6271839;28;20104;-74
2023/06/29 10:56:30;;;;;;;10.50;3.55;;;22.00;59.40;;;;;;6270711;28;20029;-73
2023/06/29 10:59:33;;;;;;;7.47;2.90;;;22.00;59.40;;;;;;6271445;28;20033;-73
2023/06/29 11:02:34;;;;;;;7.10;2.95;;;22.00;59.40;;;;;;6271098;28;20025;-74
2023/06/29 11:05:35;;;;;;;7.50;3.17;;;22.00;59.40;;;;;;6271314;28;20025;-74
2023/06/29 11:08:36;;;;;;;7.00;2.92;;;22.00;59.40;;;;;;6271701;28;20045;-74
2023/06/29 11:11:37;;;;;;;6.15;3.20;;;22.00;59.40;;;;;;6268904;28;20047;-74
2023/06/29 11:14:38;;;;;;;7.93;2.78;;;22.00;59.50;;;;;;6271665;28;20286;-74
2023/06/29 11:17:48;;;;;;;6.45;2.65;;;22.00;59.40;;;;;;6271892;28;20615;-74
2023/06/29 11:20:49;;;;;;;5.53;2.50;;;22.00;59.40;;;;;;6270611;28;20021;-74
2023/06/29 11:23:50;;;;;;;6.45;2.50;;;22.00;59.40;;;;;;6270968;28;20029;-73
2023/06/29 11:26:53;;;;;;;5.18;2.45;;;22.00;59.50;;;;;;6271527;28;20021;-74
2023/06/29 11:29:56;;;;;;;6.10;2.80;;;22.00;59.50;;;;;;6271582;28;20053;-74
2023/06/29 11:32:57;;;;;;;5.38;2.50;;;22.00;59.50;;;;;;6271331;28;20111;-74
2023/06/29 11:35:59;;;;;;;5.60;2.40;;;22.00;59.50;;;;;;6270553;28;20029;-76
2023/06/29 11:39:04;;;;;;;6.32;2.78;;;22.00;59.50;;;;;;6271482;28;20033;-74
2023/06/29 11:42:08;;;;;;;4.20;2.20;;;22.00;59.40;;;;;;6256259;28;20035;-74
2023/06/29 11:45:09;;;;;;;6.00;2.58;;;22.00;59.40;;;;;;6263204;28;20630;-73
2023/06/29 11:48:13;;;;;;;5.78;2.63;;;22.00;59.50;;;;;;6269826;28;20523;-74
2023/06/29 11:51:16;;;;;;;4.95;2.28;;;22.00;59.50;;;;;;6270814;28;20021;-73
2023/06/29 11:54:17;;;;;;;6.28;2.55;;;22.00;59.50;;;;;;6269821;28;20028;-74
2023/06/29 11:57:18;;;;;;;6.68;2.22;;;22.00;59.50;;;;;;6269156;28;20041;-74
2023/06/29 12:00:19;;;;;;;4.53;2.25;;;22.00;59.50;;;;;;6266953;28;20063;-74
2023/06/29 12:03:19;;;;;;;4.95;2.20;;;22.00;59.40;;;;;;6266609;28;20108;-74
2023/06/29 12:06:20;;;;;;;3.95;2.17;;;22.00;59.50;;;;;;6269416;28;20039;-73
2023/06/29 12:09:27;;;;;;;3.80;2.15;;;22.00;59.50;;;;;;6269458;28;20075;-74
2023/06/29 12:12:27;;;;;;;5.20;2.53;;;22.00;59.50;;;;;;6268367;28;20448;-74
2023/06/29 12:15:31;;;;;;;4.47;2.05;;;22.00;59.50;;;;;;6259067;28;20072;-74
2023/06/29 12:18:33;;;;;;;4.25;1.80;;;22.00;59.50;;;;;;6268186;28;20106;-74
2023/06/29 12:21:34;;;;;;;4.03;2.20;;;22.00;59.50;;;;;;6267882;28;20025;-74
2023/06/29 12:24:35;;;;;;;4.28;2.00;;;22.00;59.50;;;;;;6256363;28;20070;-74
2023/06/29 12:27:35;;;;;;;5.85;2.63;;;22.00;59.50;;;;;;6268653;28;20468;-73
2023/06/29 12:30:36;;;;;;;3.72;1.80;;;22.00;59.50;;;;;;6268313;28;20041;-73
2023/06/29 12:33:37;;;;;;;3.65;2.00;;;22.00;59.50;;;;;;6267665;28;20086;-73
2023/06/29 12:36:38;;;;;;;3.92;2.15;;;22.00;59.50;;;;;;6268310;28;20029;-74
2023/06/29 12:39:39;;;;;;;5.28;2.22;;;22.00;59.50;;;;;;6258884;28;22056;-73
2023/06/29 12:42:39;;;;;;;4.13;2.20;;;22.00;59.50;;;;;;6258490;28;20065;-74
2023/06/29 12:45:40;;;;;;;4.93;2.28;;;22.00;59.50;;;;;;6267439;28;20028;-74
2023/06/29 12:48:43;;;;;;;4.55;2.00;;;22.00;59.40;;;;;;6260084;28;20107;-74
2023/06/29 12:51:44;;;;;;;3.63;1.92;;;22.00;59.50;;;;;;6268124;28;20032;-73
2023/06/29 12:54:44;;;;;;;3.72;2.00;;;22.00;59.50;;;;;;6267234;28;20025;-74
2023/06/29 12:57:45;;;;;;;5.28;2.15;;;22.00;59.50;;;;;;6268314;28;20051;-73
2023/06/29 13:00:46;;;;;;;4.38;1.98;;;22.00;59.50;;;;;;6267240;28;20025;-74
2023/06/29 13:03:46;;;;;;;3.88;2.03;;;22.00;59.50;;;;;;6267851;28;20025;-74
2023/06/29 13:06:47;;;;;;;4.18;1.98;;;22.00;59.50;;;;;;6268102;28;20480;-74
2023/06/29 13:09:47;;;;;;;3.97;2.15;;;22.00;59.50;;;;;;6267535;28;20447;-73
2023/06/29 13:12:48;;;;;;;4.60;2.00;;;22.00;59.50;;;;;;6268072;28;20017;-74
2023/06/29 13:15:49;;;;;;;4.85;2.10;;;22.00;59.50;;;;;;6267364;28;20095;-74
2023/06/29 13:18:49;;;;;;;4.55;2.22;;;22.00;59.50;;;;;;6267785;28;20044;-74
2023/06/29 13:21:50;;;;;;;3.30;1.60;;;22.00;59.50;;;;;;6267513;28;20028;-74
2023/06/29 13:24:51;;;;;;;3.83;1.70;;;22.00;59.50;;;;;;6267590;28;20025;-74
2023/06/29 13:27:52;;;;;;;3.38;2.05;;;22.00;59.50;;;;;;6267814;28;20071;-74
2023/06/29 13:30:52;;;;;;;3.55;1.80;;;22.00;59.50;;;;;;6267493;28;20515;-74
2023/06/29 13:33:53;;;;;;;2.42;1.67;;;22.00;59.50;;;;;;6256623;28;20041;-74
2023/06/29 13:36:54;;;;;;;3.33;1.60;;;22.00;59.50;;;;;;6260580;28;20073;-74
2023/06/29 13:39:55;;;;;;;3.97;1.77;;;22.00;59.50;;;;;;6266697;28;20120;-73
2023/06/29 13:42:56;;;;;;;3.58;1.60;;;22.00;59.50;;;;;;6253510;28;20376;-73
2023/06/29 13:45:56;;;;;;;3.58;1.98;;;22.00;59.50;;;;;;6256843;28;20025;-74
2023/06/29 13:48:57;;;;;;;2.72;1.50;;;22.00;59.50;;;;;;6248800;28;20509;-74
2023/06/29 13:52:07;;;;;;;3.78;1.67;;;22.00;59.50;;;;;;6266187;28;20132;-74
2023/06/29 13:55:07;;;;;;;3.22;1.80;;;22.00;59.60;;;;;;6249600;28;20147;-74
2023/06/29 13:58:08;;;;;;;2.35;1.67;;;22.00;59.60;;;;;;6268954;28;20289;-74
2023/06/29 14:01:09;;;;;;;3.13;1.80;;;21.90;59.50;;;;;;6271079;28;20025;-74
2023/06/29 14:04:11;;;;;;;2.58;1.60;;;22.00;59.60;;;;;;6270256;28;20091;-74
2023/06/29 14:07:12;;;;;;;3.50;1.70;;;22.00;59.60;;;;;;6270295;28;20021;-74
2023/06/29 14:10:12;;;;;;;2.25;1.40;;;22.00;59.60;;;;;;6270593;28;20021;-74
2023/06/29 14:13:13;;;;;;;3.03;1.70;;;21.90;59.50;;;;;;6270243;28;20499;-74
2023/06/29 14:16:13;;;;;;;3.20;1.60;;;22.00;59.60;;;;;;6269670;28;20048;-74
2023/06/29 14:19:14;;;;;;;2.33;1.55;;;22.00;59.60;;;;;;6270627;28;20025;-74
2023/06/29 14:22:15;;;;;;;2.35;1.38;;;22.00;59.60;;;;;;6269224;28;20554;-74
2023/06/29 14:25:16;;;;;;;1.63;1.17;;;22.00;59.60;;;;;;6270072;28;20025;-74
2023/06/29 14:28:17;;;;;;;2.55;1.40;;;22.00;59.60;;;;;;6269509;28;20025;-74
2023/06/29 14:31:18;;;;;;;2.35;1.35;;;22.00;59.60;;;;;;6251563;28;20099;-74
2023/06/29 14:34:18;;;;;;;2.17;1.35;;;22.00;59.60;;;;;;6269575;28;20096;-74
2023/06/29 14:37:19;;;;;;;3.05;1.55;;;22.00;59.60;;;;;;6258453;28;20286;-74
2023/06/29 14:40:19;;;;;;;2.97;1.70;;;22.00;59.50;;;;;;6269362;28;20029;-74
2023/06/29 14:43:20;;;;;;;2.45;1.50;;;22.00;59.60;;;;;;6251327;28;20047;-74
2023/06/29 14:46:21;;;;;;;1.90;1.45;;;22.00;59.60;;;;;;6269814;28;20111;-74
2023/06/29 14:49:21;;;;;;;1.92;1.13;;;21.90;59.50;;;;;;6269937;28;20025;-74
2023/06/29 14:52:23;;;;;;;2.05;1.25;;;22.00;59.60;;;;;;6269471;28;20141;-74
2023/06/29 14:55:26;;;;;;;2.42;1.30;;;22.00;59.60;;;;;;6270463;28;20078;-74
2023/06/29 14:58:26;;;;;;;2.35;1.38;;;22.00;59.60;;;;;;6269325;28;20059;-73
2023/06/29 15:01:30;;;;;;;2.42;1.30;;;22.00;59.60;;;;;;6268566;28;20029;-74
2023/06/29 15:04:30;;;;;;;2.63;1.48;;;22.00;59.60;;;;;;6269443;28;20064;-74
2023/06/29 15:07:31;;;;;;;2.05;1.35;;;22.00;59.60;;;;;;6269116;28;20078;-74
2023/06/29 15:10:32;;;;;;;2.42;1.42;;;22.00;59.60;;;;;;6269761;28;20064;-74
2023/06/29 15:13:32;;;;;;;1.95;1.30;;;22.00;59.60;;;;;;6268999;28;20064;-74
2023/06/29 15:16:33;;;;;;;3.10;1.48;;;22.00;59.70;;;;;;6268906;28;20029;-75
2023/06/29 15:19:33;;;;;;;2.05;1.23;;;22.00;59.70;;;;;;6269392;28;20523;-74
2023/06/29 15:22:34;;;;;;;2.15;1.00;;;22.00;59.60;;;;;;6267999;28;20067;-74
2023/06/29 15:25:35;;;;;;;2.20;1.27;;;22.00;59.70;;;;;;6268673;28;20109;-74
2023/06/29 15:28:36;;;;;;;1.60;1.20;;;22.00;59.70;;;;;;6268557;28;20388;-74
2023/06/29 15:31:36;;;;;;;2.38;1.25;;;22.00;59.60;;;;;;6268367;28;20068;-74
2023/06/29 15:34:37;;;;;;;1.55;0.93;;;22.00;59.60;;;;;;6268272;28;20035;-74
2023/06/29 15:37:37;;;;;;;2.72;1.27;;;22.00;59.70;;;;;;6267814;28;20393;-74
2023/06/29 15:40:38;;;;;;;3.03;1.33;;;22.00;59.70;;;;;;6268694;28;20083;-74
2023/06/29 15:43:38;;;;;;;2.30;1.20;;;22.00;59.60;;;;;;6267210;28;20096;-73
2023/06/29 15:46:41;;;;;;;2.38;1.20;;;22.00;59.70;;;;;;6267949;28;20100;-74